Time;durP1;ratioP1;P1;durP2;ratioP2;P2;SDS_P1;SDS_P2;PMS_P1;PMS_P2;Temp;Humidity;BMP_temperature;BMP_pressure;BME280_temperature;BME280_humidity;BME280_pressure;Samples;Min_cycle;Max_cycle;Signal;HPM_P1;HPM_P2
2022/08/15 00:01:54;;;;;;;;;;;29.50;71.60;;;;;;5071662;28;19974;-63
2022/08/15 00:04:19;;;;;;;;;;;29.00;71.40;;;;;;5052966;28;20290;-75
2022/08/15 00:06:45;;;;;;;;;;;29.30;71.50;;;;;;5071997;28;20011;-62
2022/08/15 00:09:18;;;;;;;;;;;29.40;71.80;;;;;;5072747;28;20003;-61
2022/08/15 00:11:45;;;;;;;;;;;29.20;70.20;;;;;;5072276;28;20309;-62
2022/08/15 00:14:17;;;;;;;;;;;29.40;71.80;;;;;;5072119;28;19932;-62
2022/08/15 00:16:43;;;;;;;;;;;29.30;71.80;;;;;;5072131;28;20684;-61
2022/08/15 00:19:10;;;;;;;;;;;29.10;71.40;;;;;;5073585;28;19952;-61
2022/08/15 00:21:37;;;;;;;;;;;29.10;71.60;;;;;;5075181;28;20381;-61
2022/08/15 00:24:03;;;;;;;;;;;29.00;71.50;;;;;;5075493;28;19925;-61
2022/08/15 00:26:28;;;;;;;;;;;29.30;71.50;;;;;;5076129;28;20283;-62
2022/08/15 00:28:54;;;;;;;;;;;29.20;71.40;;;;;;5061077;28;19985;-61
2022/08/15 00:31:21;;;;;;;;;;;29.00;71.00;;;;;;5075283;28;19924;-74
2022/08/15 00:33:47;;;;;;;;;;;29.40;71.70;;;;;;5057772;28;19978;-72
2022/08/15 00:36:15;;;;;;;;;;;29.30;71.30;;;;;;5074798;28;19925;-72
2022/08/15 00:38:41;;;;;;;;;;;29.10;71.40;;;;;;5075575;28;19960;-71
2022/08/15 00:43:56;;;;;;;;;;;29.50;71.90;;;;;;5075747;28;19970;-61
2022/08/15 00:46:21;;;;;;;;;;;29.20;71.70;;;;;;5075850;28;20280;-62
2022/08/15 00:48:49;;;;;;;;;;;29.10;71.20;;;;;;5075368;28;20011;-66
2022/08/15 00:51:18;;;;;;;;;;;29.10;71.10;;;;;;5075650;28;20446;-61
2022/08/15 00:53:45;;;;;;;;;;;29.30;70.40;;;;;;5075730;28;19968;-62
2022/08/15 00:56:11;;;;;;;;;;;29.10;71.70;;;;;;5074129;28;20743;-61
2022/08/15 00:58:37;;;;;;;;;;;29.20;71.50;;;;;;5056523;28;19924;-63
2022/08/15 01:01:03;;;;;;;;;;;29.50;71.70;;;;;;5073064;28;19920;-62
2022/08/15 01:03:30;;;;;;;;;;;29.20;71.60;;;;;;5075205;28;19925;-61
2022/08/15 01:05:57;;;;;;;;;;;29.20;71.70;;;;;;5074317;28;19982;-65
2022/08/15 01:08:24;;;;;;;;;;;29.10;71.70;;;;;;5075413;28;19982;-61
2022/08/15 01:10:50;;;;;;;;;;;29.00;71.50;;;;;;5072506;28;19931;-63
2022/08/15 01:13:16;;;;;;;;;;;29.30;71.70;;;;;;5068951;28;19932;-61
2022/08/15 01:15:41;;;;;;;;;;;29.10;71.20;;;;;;5070467;28;19924;-61
2022/08/15 01:18:07;;;;;;;;;;;29.30;71.40;;;;;;5068488;28;19925;-61
2022/08/15 01:20:33;;;;;;;;;;;29.10;71.30;;;;;;5055507;28;19925;-61
2022/08/15 01:23:01;;;;;;;;;;;29.10;71.30;;;;;;5070390;28;20366;-61
2022/08/15 01:25:34;;;;;;;;;;;29.00;70.10;;;;;;5053808;28;20062;-61
2022/08/15 01:28:16;;;;;;;;;;;29.10;70.20;;;;;;5054513;28;19978;-61
2022/08/15 01:30:42;;;;;;;;;;;29.30;70.30;;;;;;5046771;28;19924;-62
2022/08/15 01:33:08;;;;;;;;;;;29.40;71.90;;;;;;5070905;28;19925;-63
2022/08/15 01:35:34;;;;;;;;;;;29.20;71.50;;;;;;5054065;28;19936;-61
2022/08/15 01:38:00;;;;;;;;;;;29.20;71.40;;;;;;5055048;28;19947;-66
2022/08/15 01:40:28;;;;;;;;;;;29.50;71.80;;;;;;5052854;28;19928;-61
2022/08/15 01:42:54;;;;;;;;;;;29.10;70.10;;;;;;5053989;28;20302;-61
2022/08/15 01:45:21;;;;;;;;;;;29.20;71.50;;;;;;5052339;28;19924;-63
2022/08/15 01:47:48;;;;;;;;;;;29.20;71.70;;;;;;5054850;28;19928;-61
2022/08/15 01:50:18;;;;;;;;;;;29.10;71.60;;;;;;5069777;28;19968;-63
2022/08/15 01:52:46;;;;;;;;;;;29.10;70.10;;;;;;5053528;28;20425;-61
2022/08/15 01:55:13;;;;;;;;;;;29.20;70.20;;;;;;5054742;28;19957;-61
2022/08/15 01:57:38;;;;;;;;;;;29.00;71.40;;;;;;5069627;28;19975;-63
2022/08/15 02:00:05;;;;;;;;;;;29.20;71.50;;;;;;5051998;28;19967;-62
2022/08/15 02:02:30;;;;;;;;;;;29.20;71.40;;;;;;5053167;28;19932;-60
2022/08/15 02:04:56;;;;;;;;;;;29.20;71.50;;;;;;5054468;28;19924;-61
2022/08/15 02:07:25;;;;;;;;;;;29.20;71.50;;;;;;5054099;28;19925;-65
2022/08/15 02:09:51;;;;;;;;;;;29.20;71.80;;;;;;5053898;28;19932;-61
2022/08/15 02:12:18;;;;;;;;;;;29.10;71.60;;;;;;5053436;28;20294;-62
2022/08/15 02:14:44;;;;;;;;;;;29.10;71.70;;;;;;5057927;28;20313;-61
2022/08/15 02:17:09;;;;;;;;;;;29.00;71.20;;;;;;5074392;28;19932;-61
2022/08/15 02:19:36;;;;;;;;;;;29.00;71.40;;;;;;5055906;28;19978;-64
2022/08/15 02:22:01;;;;;;;;;;;29.20;71.80;;;;;;5073559;28;19925;-61
2022/08/15 02:24:27;;;;;;;;;;;29.10;71.40;;;;;;5073123;28;19969;-61
2022/08/15 02:26:53;;;;;;;;;;;28.90;71.30;;;;;;5072550;28;19924;-63
2022/08/15 02:29:22;;;;;;;;;;;29.00;71.50;;;;;;5073145;28;19920;-61
2022/08/15 02:31:48;;;;;;;;;;;29.50;70.60;;;;;;5072562;28;19949;-62
2022/08/15 02:34:14;;;;;;;;;;;29.10;71.50;;;;;;5073559;28;19932;-62
2022/08/15 02:36:40;;;;;;;;;;;29.00;71.40;;;;;;5073463;28;19967;-63
2022/08/15 02:39:07;;;;;;;;;;;29.10;71.50;;;;;;5073567;28;19979;-62
2022/08/15 02:41:43;;;;;;;;;;;29.10;71.60;;;;;;5055577;28;20370;-66
2022/08/15 02:44:10;;;;;;;;;;;28.60;70.00;;;;;;5074249;28;19931;-62
2022/08/15 02:46:37;;;;;;;;;;;28.90;71.40;;;;;;5073899;28;19962;-62
2022/08/15 02:49:03;;;;;;;;;;;29.20;71.80;;;;;;5073115;28;19932;-62
2022/08/15 02:51:29;;;;;;;;;;;28.90;71.50;;;;;;5073397;28;19936;-61
2022/08/15 02:53:54;;;;;;;;;;;28.90;71.50;;;;;;5071463;28;19924;-63
2022/08/15 02:56:24;;;;;;;;;;;29.10;71.50;;;;;;5073519;28;20011;-62
2022/08/15 02:58:49;;;;;;;;;;;29.10;72.00;;;;;;5072755;28;19924;-64
2022/08/15 03:01:15;;;;;;;;;;;29.00;71.60;;;;;;5072425;28;20285;-61
2022/08/15 03:03:42;;;;;;;;;;;28.90;71.80;;;;;;5071817;28;19924;-62
2022/08/15 03:06:08;;;;;;;;;;;28.90;71.80;;;;;;5073006;28;19931;-61
2022/08/15 03:08:37;;;;;;;;;;;29.20;72.00;;;;;;5073389;28;20305;-62
2022/08/15 03:11:04;;;;;;;;;;;28.80;70.20;;;;;;5072497;28;20007;-62
2022/08/15 03:13:31;;;;;;;;;;;28.80;71.60;;;;;;5072086;28;19931;-62
2022/08/15 03:15:57;;;;;;;;;;;28.90;71.50;;;;;;5072659;28;19924;-64
2022/08/15 03:18:24;;;;;;;;;;;29.10;71.70;;;;;;5072979;28;19925;-62
2022/08/15 03:20:51;;;;;;;;;;;29.00;71.60;;;;;;5072288;28;20026;-62
2022/08/15 03:23:17;;;;;;;;;;;29.30;72.00;;;;;;5072269;28;20405;-63
2022/08/15 03:25:44;;;;;;;;;;;28.90;71.90;;;;;;5070447;28;20345;-62
2022/08/15 03:28:10;;;;;;;;;;;29.00;71.90;;;;;;5071941;28;19924;-62
2022/08/15 03:30:36;;;;;;;;;;;28.90;71.50;;;;;;5071980;28;19981;-61
2022/08/15 03:33:02;;;;;;;;;;;29.10;71.90;;;;;;5073846;28;19964;-62
2022/08/15 03:35:28;;;;;;;;;;;28.70;71.50;;;;;;5071708;28;20019;-63
2022/08/15 03:37:54;;;;;;;;;;;28.80;71.90;;;;;;5072673;28;19935;-61
2022/08/15 03:40:20;;;;;;;;;;;29.00;72.00;;;;;;5072531;28;20305;-61
2022/08/15 03:42:52;;;;;;;;;;;28.60;71.40;;;;;;5072165;28;19925;-61
2022/08/15 03:45:18;;;;;;;;;;;29.30;70.70;;;;;;5070785;28;19931;-62
2022/08/15 03:47:43;;;;;;;;;;;29.00;71.80;;;;;;5073343;28;19929;-61
2022/08/15 03:50:12;;;;;;;;;;;29.00;71.70;;;;;;5072767;28;20512;-60
2022/08/15 03:52:50;;;;;;;;;;;28.90;71.70;;;;;;5071394;28;19934;-60
2022/08/15 03:55:18;;;;;;;;;;;29.00;71.20;;;;;;5070950;28;19932;-62
2022/08/15 03:57:44;;;;;;;;;;;29.00;70.60;;;;;;5069518;28;19935;-68
2022/08/15 04:00:11;;;;;;;;;;;28.90;71.70;;;;;;5071702;28;20294;-61
2022/08/15 04:02:36;;;;;;;;;;;29.00;71.70;;;;;;5071612;28;19932;-65
2022/08/15 04:05:02;;;;;;;;;;;28.90;71.90;;;;;;5072362;28;19924;-61
2022/08/15 04:07:29;;;;;;;;;;;29.00;71.60;;;;;;5069645;28;20362;-61
2022/08/15 04:09:54;;;;;;;;;;;29.00;72.00;;;;;;5073181;28;20276;-61
2022/08/15 04:12:30;;;;;;;;;;;28.80;71.70;;;;;;5069586;28;20019;-61
2022/08/15 04:14:55;;;;;;;;;;;28.70;70.40;;;;;;5072257;28;19930;-60
2022/08/15 04:17:21;;;;;;;;;;;29.00;71.70;;;;;;5070611;28;20301;-61
2022/08/15 04:19:47;;;;;;;;;;;29.00;71.80;;;;;;5071784;28;20378;-60
2022/08/15 04:22:13;;;;;;;;;;;29.10;71.90;;;;;;5067565;28;19964;-60
2022/08/15 04:24:38;;;;;;;;;;;28.60;71.60;;;;;;5071969;28;19924;-61
2022/08/15 04:27:04;;;;;;;;;;;29.10;72.00;;;;;;5071742;28;20441;-61
2022/08/15 04:29:30;;;;;;;;;;;28.80;71.70;;;;;;5072057;28;19928;-61
2022/08/15 04:31:56;;;;;;;;;;;28.90;71.60;;;;;;5070277;28;19932;-61
2022/08/15 04:34:22;;;;;;;;;;;29.10;71.90;;;;;;5072824;28;20332;-61
2022/08/15 04:36:47;;;;;;;;;;;28.90;71.70;;;;;;5071926;28;19938;-61
2022/08/15 04:39:13;;;;;;;;;;;29.10;72.00;;;;;;5054394;28;20378;-61
2022/08/15 04:41:38;;;;;;;;;;;28.70;71.40;;;;;;5071297;28;19966;-66
2022/08/15 04:44:04;;;;;;;;;;;28.80;71.70;;;;;;5071686;28;19931;-60
2022/08/15 04:46:30;;;;;;;;;;;28.70;71.50;;;;;;5071760;28;19932;-61
2022/08/15 04:48:56;;;;;;;;;;;29.00;71.80;;;;;;5071710;28;20019;-60
2022/08/15 04:51:22;;;;;;;;;;;29.00;71.70;;;;;;5070688;28;19924;-62
2022/08/15 04:53:47;;;;;;;;;;;28.80;71.50;;;;;;5070106;28;19939;-63
2022/08/15 04:56:13;;;;;;;;;;;29.00;71.40;;;;;;5070928;28;19928;-62
2022/08/15 04:58:39;;;;;;;;;;;29.00;71.70;;;;;;5071195;28;19971;-60
2022/08/15 05:01:06;;;;;;;;;;;28.90;71.60;;;;;;5071368;28;20366;-61
2022/08/15 05:03:32;;;;;;;;;;;29.10;71.80;;;;;;5053526;28;19924;-62
2022/08/15 05:05:59;;;;;;;;;;;28.90;71.50;;;;;;5073391;28;19924;-61
2022/08/15 05:08:28;;;;;;;;;;;28.70;71.60;;;;;;5075870;28;19963;-61
2022/08/15 05:10:58;;;;;;;;;;;28.80;71.70;;;;;;5073294;28;20015;-63
2022/08/15 05:13:25;;;;;;;;;;;29.00;71.90;;;;;;5072478;28;19929;-61
2022/08/15 05:15:51;;;;;;;;;;;29.00;71.90;;;;;;5074269;28;20345;-61
2022/08/15 05:18:17;;;;;;;;;;;29.10;71.60;;;;;;5075064;28;19983;-61
2022/08/15 05:20:43;;;;;;;;;;;28.80;71.40;;;;;;5073834;28;19924;-61
2022/08/15 05:23:10;;;;;;;;;;;29.10;71.80;;;;;;5074672;28;20313;-61
2022/08/15 05:25:36;;;;;;;;;;;28.80;71.70;;;;;;5074267;28;19925;-61
2022/08/15 05:28:02;;;;;;;;;;;29.30;72.10;;;;;;5075428;28;19924;-64
2022/08/15 05:30:28;;;;;;;;;;;29.10;71.40;;;;;;5074030;28;19969;-62
2022/08/15 05:33:07;;;;;;;;;;;28.80;71.50;;;;;;5071719;28;20374;-75
2022/08/15 05:35:35;;;;;;;;;;;28.90;70.30;;;;;;5071019;28;20370;-75
2022/08/15 05:38:03;;;;;;;;;;;29.10;71.80;;;;;;5073113;28;19932;-75
2022/08/15 05:40:44;;;;;;;;;;;28.80;71.70;;;;;;5073905;28;19927;-73
2022/08/15 05:43:12;;;;;;;;;;;29.00;71.80;;;;;;5072276;28;19924;-65
2022/08/15 05:45:39;;;;;;;;;;;29.00;71.90;;;;;;5073422;28;19951;-66
2022/08/15 05:48:16;;;;;;;;;;;29.40;71.90;;;;;;5073076;28;19925;-62
2022/08/15 05:50:52;;;;;;;;;;;29.00;70.40;;;;;;5072649;28;20344;-77
2022/08/15 05:53:18;;;;;;;;;;;28.80;70.40;;;;;;5073102;28;19925;-76
2022/08/15 05:56:03;;;;;;;;;;;28.90;71.90;;;;;;5074648;28;19929;-61
2022/08/15 05:58:43;;;;;;;;;;;28.80;71.10;;;;;;5073011;28;20021;-62
2022/08/15 06:01:09;;;;;;;;;;;28.70;71.60;;;;;;5071484;28;19974;-61
2022/08/15 06:03:35;;;;;;;;;;;28.30;73.10;;;;;;5073615;28;20267;-62
2022/08/15 06:06:03;;;;;;;;;;;28.50;73.80;;;;;;5074804;28;19938;-62
2022/08/15 06:08:33;;;;;;;;;;;28.20;74.50;;;;;;5072155;28;19932;-63
2022/08/15 06:11:02;;;;;;;;;;;28.40;73.80;;;;;;5066489;28;19921;-61
2022/08/15 06:13:29;;;;;;;;;;;28.00;75.30;;;;;;5072972;28;19924;-62
2022/08/15 06:15:58;;;;;;;;;;;28.00;75.60;;;;;;5071711;28;19931;-61
2022/08/15 06:18:24;;;;;;;;;;;28.10;74.50;;;;;;5073343;28;19964;-61
2022/08/15 06:20:52;;;;;;;;;;;27.80;75.80;;;;;;5071055;28;20041;-61
2022/08/15 06:23:41;;;;;;;;;;;27.70;74.80;;;;;;5075094;28;19984;-61
2022/08/15 06:26:25;;;;;;;;;;;27.70;75.20;;;;;;5069653;28;19932;-61
2022/08/15 06:29:08;;;;;;;;;;;27.30;75.20;;;;;;5072789;28;19932;-66
2022/08/15 06:31:54;;;;;;;;;;;27.80;76.00;;;;;;5076078;28;19928;-65
2022/08/15 06:34:39;;;;;;;;;;;27.60;77.70;;;;;;5075758;28;19931;-63
2022/08/15 06:37:17;;;;;;;;;;;27.70;76.50;;;;;;5069025;28;19931;-63
2022/08/15 06:39:45;;;;;;;;;;;27.50;76.50;;;;;;5058944;28;19993;-66
2022/08/15 06:42:41;;;;;;;;;;;27.70;76.60;;;;;;5071041;28;19974;-69
2022/08/15 06:45:22;;;;;;;;;;;27.60;76.10;;;;;;4968396;28;19930;-68
2022/08/15 06:47:49;;;;;;;;;;;27.60;75.50;;;;;;4984075;28;19941;-62
2022/08/15 06:50:18;;;;;;;;;;;28.00;76.70;;;;;;4990483;28;20016;-63
2022/08/15 06:52:46;;;;;;;;;;;27.80;74.70;;;;;;4986663;28;19937;-61
2022/08/15 06:55:12;;;;;;;;;;;28.10;76.30;;;;;;4983346;28;19926;-65
2022/08/15 06:57:41;;;;;;;;;;;28.00;75.90;;;;;;4972140;28;19923;-62
2022/08/15 07:00:10;;;;;;;;;;;27.90;74.20;;;;;;4982005;28;19933;-62
2022/08/15 07:02:40;;;;;;;;;;;28.10;75.00;;;;;;4967151;28;19925;-65
2022/08/15 07:05:32;;;;;;;;;;;28.00;74.10;;;;;;4980089;28;20020;-61
2022/08/15 07:08:11;;;;;;;;;;;28.20;74.50;;;;;;4984209;28;19962;-61
2022/08/15 07:10:57;;;;;;;;;;;28.10;74.80;;;;;;4991536;28;19926;-64
2022/08/15 07:13:31;;;;;;;;;;;28.30;75.20;;;;;;4990102;28;20351;-63
2022/08/15 07:16:08;;;;;;;;;;;28.10;75.30;;;;;;4984661;28;19932;-66
2022/08/15 07:18:34;;;;;;;;;;;27.80;75.10;;;;;;4988122;28;19936;-65
2022/08/15 07:21:07;;;;;;;;;;;28.10;77.00;;;;;;5004485;28;20015;-63
2022/08/15 07:23:33;;;;;;;;;;;27.80;75.70;;;;;;5072502;28;19993;-61
2022/08/15 07:26:08;;;;;;;;;;;27.40;76.90;;;;;;5071256;28;19928;-63
2022/08/15 07:28:34;;;;;;;;;;;27.60;77.20;;;;;;5070100;28;19930;-61
2022/08/15 07:31:09;;;;;;;;;;;27.80;77.50;;;;;;5055451;28;20007;-63
2022/08/15 07:33:37;;;;;;;;;;;27.60;76.10;;;;;;5071198;28;19925;-61
2022/08/15 07:36:08;;;;;;;;;;;27.40;77.50;;;;;;5071812;28;19932;-62
2022/08/15 07:38:33;;;;;;;;;;;27.50;77.60;;;;;;5066174;28;19932;-64
2022/08/15 07:41:22;;;;;;;;;;;27.50;77.10;;;;;;5067329;28;19924;-65
2022/08/15 07:43:48;;;;;;;;;;;27.40;76.20;;;;;;5054147;28;20011;-64
2022/08/15 07:46:19;;;;;;;;;;;27.40;77.50;;;;;;5057345;28;19928;-73
2022/08/15 07:48:52;;;;;;;;;;;27.10;75.70;;;;;;5037365;28;19974;-74
2022/08/15 07:51:22;;;;;;;;;;;27.70;77.40;;;;;;5049374;28;19972;-63
2022/08/15 07:53:49;;;;;;;;;;;27.50;77.40;;;;;;5054430;28;19928;-64
2022/08/15 07:56:15;;;;;;;;;;;27.60;77.40;;;;;;5055099;28;19928;-65
2022/08/15 07:58:42;;;;;;;;;;;27.50;77.60;;;;;;5065577;28;20010;-74
2022/08/15 08:01:13;;;;;;;;;;;27.70;77.10;;;;;;5053100;28;19967;-61
2022/08/15 08:03:40;;;;;;;;;;;27.90;75.70;;;;;;5051294;28;20012;-61
2022/08/15 08:06:12;;;;;;;;;;;28.10;76.60;;;;;;5045584;28;20016;-74
2022/08/15 08:08:43;;;;;;;;;;;28.20;74.60;;;;;;5059406;28;19928;-64
2022/08/15 08:11:14;;;;;;;;;;;28.50;74.20;;;;;;5049064;28;19971;-64
2022/08/15 08:13:41;;;;;;;;;;;28.40;74.90;;;;;;5058791;28;19975;-65
2022/08/15 08:16:17;;;;;;;;;;;28.80;74.00;;;;;;5054613;28;19929;-75
2022/08/15 08:18:47;;;;;;;;;;;28.90;73.00;;;;;;5059735;28;19937;-76
2022/08/15 08:21:17;;;;;;;;;;;29.20;72.80;;;;;;5061284;28;19931;-63
2022/08/15 08:23:45;;;;;;;;;;;29.20;73.70;;;;;;5055984;28;19936;-64
2022/08/15 08:26:13;;;;;;;;;;;29.30;73.10;;;;;;5055800;28;19925;-65
2022/08/15 08:28:45;;;;;;;;;;;29.00;71.00;;;;;;5063614;28;19935;-65
2022/08/15 08:31:21;;;;;;;;;;;29.30;71.40;;;;;;5056579;28;19925;-65
2022/08/15 08:34:05;;;;;;;;;;;29.40;71.10;;;;;;5062755;28;20345;-65
2022/08/15 08:36:55;;;;;;;;;;;29.20;71.10;;;;;;5064359;28;19940;-64
2022/08/15 08:39:36;;;;;;;;;;;29.50;71.20;;;;;;5059156;28;20038;-64
2022/08/15 08:42:18;;;;;;;;;;;30.00;71.20;;;;;;5061985;28;19925;-66
2022/08/15 08:44:59;;;;;;;;;;;29.30;70.60;;;;;;5064294;28;19971;-64
2022/08/15 08:47:43;;;;;;;;;;;29.80;71.00;;;;;;5064911;28;19929;-64
2022/08/15 08:50:27;;;;;;;;;;;29.70;70.80;;;;;;5062638;28;20393;-66
2022/08/15 08:52:56;;;;;;;;;;;30.00;70.60;;;;;;5061526;28;19932;-68
2022/08/15 08:55:30;;;;;;;;;;;29.70;70.60;;;;;;5062668;28;19928;-72
2022/08/15 08:58:03;;;;;;;;;;;30.10;70.70;;;;;;5064231;28;20393;-64
2022/08/15 09:00:35;;;;;;;;;;;29.70;70.00;;;;;;5067318;28;19976;-68
2022/08/15 09:03:04;;;;;;;;;;;29.90;71.10;;;;;;5063388;28;19928;-65
2022/08/15 09:05:31;;;;;;;;;;;29.90;71.70;;;;;;5066711;28;20352;-61
2022/08/15 09:08:16;;;;;;;;;;;29.70;70.60;;;;;;5066235;28;19930;-65
2022/08/15 09:10:43;;;;;;;;;;;29.90;70.90;;;;;;5066292;28;19936;-66
2022/08/15 09:15:55;;;;;;;;;;;29.70;70.40;;;;;;5065697;28;20317;-61
2022/08/15 09:18:23;;;;;;;;;;;29.60;71.60;;;;;;5070049;28;19924;-63
2022/08/15 09:20:49;;;;;;;;;;;29.90;72.00;;;;;;5071930;28;19924;-69
2022/08/15 09:23:15;;;;;;;;;;;29.70;71.80;;;;;;5073375;28;19939;-64
2022/08/15 09:26:10;;;;;;;;;;;29.70;71.30;;;;;;5071202;28;20066;-66
2022/08/15 09:28:37;;;;;;;;;;;29.60;70.10;;;;;;4989403;28;19965;-62
2022/08/15 09:31:06;;;;;;;;;;;29.60;71.70;;;;;;4988625;28;20225;-73
2022/08/15 09:33:36;;;;;;;;;;;29.80;71.30;;;;;;4990652;28;19926;-62
2022/08/15 09:36:12;;;;;;;;;;;29.80;71.40;;;;;;4990336;28;19937;-61
2022/08/15 09:38:42;;;;;;;;;;;29.90;69.90;;;;;;4989984;28;19969;-63
2022/08/15 09:41:11;;;;;;;;;;;30.10;70.20;;;;;;4990584;28;19933;-62
2022/08/15 09:43:44;;;;;;;;;;;30.30;70.10;;;;;;4989465;28;19934;-71
2022/08/15 09:46:10;;;;;;;;;;;30.10;70.00;;;;;;4990747;28;19932;-60
2022/08/15 09:48:41;;;;;;;;;;;30.10;70.70;;;;;;4990935;28;19952;-61
2022/08/15 09:51:36;;;;;;;;;;;30.00;71.00;;;;;;4990742;28;19978;-71
2022/08/15 09:54:05;;;;;;;;;;;30.00;69.30;;;;;;4947255;28;20346;-76
2022/08/15 09:56:32;;;;;;;;;;;30.10;69.20;;;;;;4950900;28;20044;-65
2022/08/15 09:59:17;;;;;;;;;;;30.00;69.20;;;;;;4949552;28;19930;-65
2022/08/15 10:01:54;;;;;;;;;;;30.30;68.20;;;;;;4950076;28;19933;-62
2022/08/15 10:04:24;;;;;;;;;;;30.10;68.00;;;;;;4948125;28;19929;-63
2022/08/15 10:07:18;;;;;;;;;;;30.20;68.40;;;;;;4986708;28;20045;-64
2022/08/15 10:10:06;;;;;;;;;;;30.20;67.90;;;;;;4966304;28;19934;-67
2022/08/15 10:12:37;;;;;;;;;;;30.50;68.00;;;;;;4987944;28;20393;-62
2022/08/15 10:15:25;;;;;;;;;;;30.60;68.10;;;;;;4988723;28;19933;-62
2022/08/15 10:17:54;;;;;;;;;;;30.60;68.00;;;;;;4984128;28;20060;-63
2022/08/15 10:20:22;;;;;;;;;;;30.50;68.10;;;;;;4971874;28;19949;-62
2022/08/15 10:22:50;;;;;;;;;;;30.30;69.30;;;;;;4985639;28;20001;-64
2022/08/15 10:25:22;;;;;;;;;;;30.30;69.40;;;;;;4985146;28;20338;-73
2022/08/15 10:27:56;;;;;;;;;;;30.50;68.00;;;;;;4986071;28;20525;-63
2022/08/15 10:30:30;;;;;;;;;;;30.40;67.90;;;;;;5019476;28;20339;-68
2022/08/15 10:32:56;;;;;;;;;;;31.00;68.10;;;;;;5060476;28;20260;-67
2022/08/15 10:35:27;;;;;;;;;;;30.60;69.00;;;;;;5060379;28;19978;-64
2022/08/15 10:37:56;;;;;;;;;;;30.70;69.10;;;;;;5062265;28;19979;-61
2022/08/15 10:40:28;;;;;;;;;;;30.80;67.30;;;;;;5062493;28;19935;-63
2022/08/15 10:43:29;;;;;;;;;;;30.70;67.30;;;;;;5060397;28;19933;-60
2022/08/15 10:45:59;;;;;;;;;;;30.70;67.40;;;;;;5027416;28;19932;-64
2022/08/15 10:48:37;;;;;;;;;;;30.80;67.40;;;;;;5027815;28;20302;-74
2022/08/15 10:51:15;;;;;;;;;;;30.70;67.40;;;;;;5022786;28;20468;-60
2022/08/15 10:53:53;;;;;;;;;;;30.70;68.10;;;;;;5028492;28;20019;-62
2022/08/15 10:56:24;;;;;;;;;;;30.60;67.50;;;;;;5011644;28;19957;-62
2022/08/15 10:58:50;;;;;;;;;;;30.50;68.80;;;;;;5028443;28;19925;-61
2022/08/15 11:01:20;;;;;;;;;;;30.50;68.20;;;;;;5027343;28;19948;-64
2022/08/15 11:03:51;;;;;;;;;;;30.60;67.10;;;;;;5028057;28;19968;-68
2022/08/15 11:06:20;;;;;;;;;;;30.60;67.10;;;;;;5010947;28;19929;-63
2022/08/15 11:08:49;;;;;;;;;;;30.50;68.60;;;;;;5028043;28;20131;-65
2022/08/15 11:11:15;;;;;;;;;;;30.50;68.80;;;;;;5029175;28;20323;-62
2022/08/15 11:13:44;;;;;;;;;;;30.60;68.50;;;;;;5011524;28;19935;-63
2022/08/15 11:16:13;;;;;;;;;;;30.50;68.50;;;;;;5028084;28;19925;-61
2022/08/15 11:18:48;;;;;;;;;;;30.40;67.00;;;;;;5031669;28;20436;-63
2022/08/15 11:21:32;;;;;;;;;;;30.90;67.60;;;;;;5033071;28;19979;-62
2022/08/15 11:24:00;;;;;;;;;;;30.30;67.00;;;;;;5053680;28;19932;-61
2022/08/15 11:26:27;;;;;;;;;;;30.60;68.50;;;;;;5053379;28;19924;-60
2022/08/15 11:29:08;;;;;;;;;;;30.40;68.40;;;;;;5054189;28;20033;-61
2022/08/15 11:31:41;;;;;;;;;;;30.50;66.80;;;;;;5050506;28;19931;-61
2022/08/15 11:34:17;;;;;;;;;;;30.40;67.70;;;;;;5051441;28;19932;-62
2022/08/15 11:36:42;;;;;;;;;;;30.80;68.10;;;;;;5052040;28;19925;-65
2022/08/15 11:39:12;;;;;;;;;;;30.80;67.70;;;;;;5018568;28;20701;-60
2022/08/15 11:41:39;;;;;;;;;;;30.60;66.30;;;;;;5049704;28;19925;-60
2022/08/15 11:44:05;;;;;;;;;;;30.70;67.90;;;;;;5052210;28;19967;-60
2022/08/15 11:46:32;;;;;;;;;;;30.40;67.60;;;;;;5048769;28;19925;-60
2022/08/15 11:48:59;;;;;;;;;;;30.60;67.60;;;;;;5065568;28;19931;-67
2022/08/15 11:51:27;;;;;;;;;;;30.70;67.90;;;;;;5051437;28;19928;-60
2022/08/15 11:54:19;;;;;;;;;;;30.70;67.80;;;;;;5049953;28;20310;-60
2022/08/15 11:56:49;;;;;;;;;;;30.80;66.20;;;;;;5048567;28;19924;-64
2022/08/15 11:59:34;;;;;;;;;;;30.50;66.10;;;;;;5052654;28;19925;-62
2022/08/15 12:02:12;;;;;;;;;;;30.60;66.10;;;;;;5052916;28;20282;-62
2022/08/15 12:04:42;;;;;;;;;;;30.70;66.00;;;;;;5051339;28;20015;-68
2022/08/15 12:07:12;;;;;;;;;;;30.60;67.40;;;;;;5052789;28;19925;-62
2022/08/15 12:09:38;;;;;;;;;;;30.70;66.20;;;;;;5069188;28;19932;-65
2022/08/15 12:12:04;;;;;;;;;;;30.70;68.10;;;;;;5052492;28;19925;-62
2022/08/15 12:14:30;;;;;;;;;;;30.80;67.90;;;;;;5052152;28;19962;-61
2022/08/15 12:17:04;;;;;;;;;;;30.70;68.60;;;;;;5069779;28;19944;-60
2022/08/15 12:19:36;;;;;;;;;;;30.70;67.40;;;;;;5068133;28;19924;-63
2022/08/15 12:22:07;;;;;;;;;;;30.60;67.40;;;;;;5052069;28;19932;-61
2022/08/15 12:24:33;;;;;;;;;;;30.90;69.10;;;;;;5060035;28;19924;-61
2022/08/15 12:27:01;;;;;;;;;;;30.80;68.90;;;;;;5073324;28;19928;-61
2022/08/15 12:29:31;;;;;;;;;;;30.80;68.70;;;;;;5073362;28;19931;-60
2022/08/15 12:31:58;;;;;;;;;;;30.60;67.20;;;;;;5072508;28;20393;-60
2022/08/15 12:34:28;;;;;;;;;;;30.60;68.70;;;;;;5072821;28;19928;-62
2022/08/15 12:36:53;;;;;;;;;;;30.70;67.60;;;;;;5073131;28;19968;-61
2022/08/15 12:39:19;;;;;;;;;;;30.50;68.50;;;;;;5073767;28;19928;-61
2022/08/15 12:41:46;;;;;;;;;;;30.50;69.00;;;;;;5073456;28;20416;-60
2022/08/15 12:44:33;;;;;;;;;;;30.50;69.20;;;;;;5073586;28;19928;-63
2022/08/15 12:46:59;;;;;;;;;;;30.60;67.80;;;;;;5070709;28;19924;-62
2022/08/15 12:49:24;;;;;;;;;;;30.70;69.20;;;;;;5072059;28;19931;-61
2022/08/15 12:51:51;;;;;;;;;;;30.80;69.90;;;;;;5072787;28;19978;-61
2022/08/15 12:54:17;;;;;;;;;;;30.40;69.40;;;;;;5072194;28;20014;-64
2022/08/15 12:56:43;;;;;;;;;;;30.40;69.60;;;;;;5070762;28;19979;-62
2022/08/15 12:59:09;;;;;;;;;;;30.60;69.70;;;;;;5073394;28;20309;-66
2022/08/15 13:01:36;;;;;;;;;;;30.60;69.90;;;;;;5072035;28;19924;-61
2022/08/15 13:04:05;;;;;;;;;;;30.60;69.70;;;;;;5061625;28;20023;-65
2022/08/15 13:06:36;;;;;;;;;;;30.50;70.20;;;;;;5069525;28;20611;-70
2022/08/15 13:09:05;;;;;;;;;;;30.50;70.20;;;;;;5069645;28;19924;-61
2022/08/15 13:11:31;;;;;;;;;;;30.40;68.90;;;;;;5070976;28;19977;-62
2022/08/15 13:13:56;;;;;;;;;;;30.50;69.90;;;;;;5071520;28;20389;-61
2022/08/15 13:16:22;;;;;;;;;;;30.60;70.40;;;;;;5071171;28;19924;-62
2022/08/15 13:18:48;;;;;;;;;;;30.70;70.20;;;;;;5070199;28;19932;-61
2022/08/15 13:23:58;;;;;;;;;;;30.60;69.40;;;;;;5069479;28;19973;-66
2022/08/15 13:26:24;;;;;;;;;;;30.60;70.10;;;;;;5070740;28;20293;-60
2022/08/15 13:28:50;;;;;;;;;;;30.30;69.80;;;;;;5072018;28;19925;-62
2022/08/15 13:31:17;;;;;;;;;;;30.60;70.00;;;;;;5075033;28;19933;-69
2022/08/15 13:33:42;;;;;;;;;;;31.10;70.40;;;;;;5075465;28;19932;-62
2022/08/15 13:36:10;;;;;;;;;;;30.70;69.80;;;;;;5075357;28;20295;-62
2022/08/15 13:38:41;;;;;;;;;;;30.80;69.70;;;;;;5075178;28;19936;-62
2022/08/15 13:41:09;;;;;;;;;;;32.00;70.70;;;;;;5067327;28;19928;-60
2022/08/15 13:43:36;;;;;;;;;;;30.90;68.60;;;;;;5074410;28;20118;-61
2022/08/15 13:46:04;;;;;;;;;;;30.70;70.00;;;;;;5072502;28;19928;-63
2022/08/15 13:48:34;;;;;;;;;;;30.80;70.00;;;;;;5074777;28;19925;-62
2022/08/15 13:51:01;;;;;;;;;;;30.70;69.80;;;;;;5071269;28;19924;-61
2022/08/15 13:53:27;;;;;;;;;;;31.00;70.20;;;;;;5073626;28;19929;-67
2022/08/15 13:55:52;;;;;;;;;;;30.80;69.40;;;;;;5071235;28;19934;-61
2022/08/15 13:58:19;;;;;;;;;;;31.20;69.30;;;;;;5073597;28;19951;-63
2022/08/15 14:00:45;;;;;;;;;;;30.90;69.80;;;;;;5073299;28;19943;-62
2022/08/15 14:03:12;;;;;;;;;;;31.00;69.60;;;;;;5073124;28;19925;-61
2022/08/15 14:05:38;;;;;;;;;;;30.90;69.70;;;;;;5073520;28;19986;-72
2022/08/15 14:08:04;;;;;;;;;;;31.00;70.00;;;;;;5074062;28;19929;-64
2022/08/15 14:10:30;;;;;;;;;;;31.00;70.00;;;;;;5069263;28;19920;-61
2022/08/15 14:12:55;;;;;;;;;;;30.80;70.00;;;;;;5067300;28;19932;-61
2022/08/15 14:15:22;;;;;;;;;;;30.90;70.00;;;;;;5073934;28;20011;-60
2022/08/15 14:17:48;;;;;;;;;;;31.30;70.60;;;;;;5079130;28;19924;-61
2022/08/15 14:20:14;;;;;;;;;;;30.90;69.80;;;;;;5079997;28;19931;-63
2022/08/15 14:22:40;;;;;;;;;;;31.00;70.30;;;;;;5076350;28;19928;-61
2022/08/15 14:25:06;;;;;;;;;;;31.10;69.90;;;;;;5075769;28;19928;-61
2022/08/15 14:27:32;;;;;;;;;;;31.00;69.50;;;;;;5074282;28;20007;-61
2022/08/15 14:29:58;;;;;;;;;;;31.10;69.80;;;;;;5075507;28;20287;-60
2022/08/15 14:32:24;;;;;;;;;;;30.80;69.40;;;;;;5075739;28;19925;-60
2022/08/15 14:34:50;;;;;;;;;;;31.20;69.60;;;;;;5075355;28;19950;-60
2022/08/15 14:37:16;;;;;;;;;;;31.10;69.40;;;;;;5074489;28;19925;-61
2022/08/15 14:39:42;;;;;;;;;;;31.10;69.90;;;;;;5073801;28;20301;-62